Pisgah, Arkansas
Current Conditions -  °F | °C
As of 1:56 PM on Thursday 23 Oct 2014 (Local Time) from KADF Reporting Station
Clear Clear  
Wind Chill: 67°   Ceiling: Unl
Heat Index: 67°   Visibility: 10mi
Dew Point: 50°   Wind: 3mph
Humidity: 54%   Direction: 230°SW
Pressure: 30.16"   Gusts: NA
Location:  34.0586°N, 93.5318°W
Report Text: KADF 231856Z AUTO 23003KT 10SM CLR 19/10 A3016 RMK AO2 T01940100 SLP228
Loading
Personal Weather Stations






























Interactive Weather Map
Tropical Storm Tracking
New forecast layout! Learn more

10-Day Weather Forecast

Advertisements
Track Severe Weather on mobile